Time;durP1;ratioP1;P1;durP2;ratioP2;P2;SDS_P1;SDS_P2;PMS_P1;PMS_P2;Temp;Humidity;BMP_temperature;BMP_pressure;BME280_temperature;BME280_humidity;BME280_pressure;Samples;Min_cycle;Max_cycle;Signal;HPM_P1;HPM_P2
2022/05/13 00:01:07;;;;;;;14.32;3.78;;;;;;;10.33;70.96;101656.59;5105507;27;20069;-78
2022/05/13 00:03:33;;;;;;;20.38;3.75;;;;;;;10.28;71.45;101653.34;5124852;27;20057;-78
2022/05/13 00:05:58;;;;;;;17.55;3.42;;;;;;;10.25;71.50;101649.00;5114396;27;20027;-78
2022/05/13 00:08:23;;;;;;;17.00;4.00;;;;;;;10.23;71.55;101650.03;5075641;28;20034;-78
2022/05/13 00:10:48;;;;;;;17.20;4.15;;;;;;;10.20;71.80;101648.38;5078388;28;20378;-78
2022/05/13 00:13:14;;;;;;;13.45;4.13;;;;;;;10.11;71.91;101649.78;5092430;28;20435;-78
2022/05/13 00:15:44;;;;;;;14.18;3.92;;;;;;;10.07;72.00;101652.75;5088507;28;20044;-78
2022/05/13 00:18:10;;;;;;;17.65;4.20;;;;;;;10.02;72.52;101654.84;5084135;28;20042;-78
2022/05/13 00:20:35;;;;;;;19.17;4.80;;;;;;;9.98;72.86;101651.47;5107727;28;20029;-78
2022/05/13 00:23:01;;;;;;;12.63;4.18;;;;;;;9.93;72.95;101649.06;5074175;28;20447;-78
2022/05/13 00:25:29;;;;;;;16.58;3.95;;;;;;;9.84;73.38;101651.41;5089656;28;20020;-78
2022/05/13 00:27:57;;;;;;;17.45;4.32;;;;;;;9.82;73.42;101651.47;5101185;28;20065;-78
2022/05/13 00:30:23;;;;;;;17.73;3.95;;;;;;;9.77;73.81;101653.59;5078899;28;20483;-78
2022/05/13 00:32:49;;;;;;;21.25;4.75;;;;;;;9.76;74.05;101650.00;5111974;28;20081;-78
2022/05/13 00:35:15;;;;;;;14.23;4.53;;;;;;;9.71;74.55;101643.22;5086984;28;20031;-78
2022/05/13 00:37:41;;;;;;;20.38;4.63;;;;;;;9.69;74.77;101648.63;5079034;28;20203;-78
2022/05/13 00:40:07;;;;;;;14.32;4.40;;;;;;;9.69;74.70;101650.47;5075448;28;20119;-78
2022/05/13 00:42:32;;;;;;;13.85;4.45;;;;;;;9.70;74.92;101650.38;5064464;28;20032;-78
2022/05/13 00:44:58;;;;;;;20.10;4.95;;;;;;;9.72;74.63;101651.16;5110632;28;20048;-78
2022/05/13 00:47:24;;;;;;;19.00;4.93;;;;;;;9.72;74.89;101647.59;5088052;27;20372;-77
2022/05/13 00:49:50;;;;;;;18.23;4.97;;;;;;;9.77;74.95;101650.91;5115706;27;20023;-77
2022/05/13 00:52:16;;;;;;;13.98;4.40;;;;;;;9.79;74.84;101641.81;5093740;28;20139;-77
2022/05/13 00:54:42;;;;;;;16.80;4.88;;;;;;;9.83;74.31;101647.84;5101379;28;20517;-77
2022/05/13 00:57:11;;;;;;;16.52;4.35;;;;;;;9.85;73.76;101639.72;5103209;28;20153;-77
2022/05/13 00:59:38;;;;;;;12.47;4.50;;;;;;;9.86;73.16;101644.13;5112875;28;20390;-77
2022/05/13 01:02:04;;;;;;;12.30;3.60;;;;;;;9.86;72.66;101642.31;5086650;27;20293;-78
2022/05/13 01:04:31;;;;;;;14.32;3.60;;;;;;;9.86;72.41;101638.78;5109110;27;20080;-77
2022/05/13 01:07:00;;;;;;;12.35;3.85;;;;;;;9.86;72.19;101636.09;5098017;28;20028;-78
2022/05/13 01:09:28;;;;;;;19.15;4.47;;;;;;;9.87;71.63;101643.16;5082623;28;20142;-78
2022/05/13 01:11:59;;;;;;;13.98;4.00;;;;;;;9.87;71.54;101643.16;5092741;28;20479;-78
2022/05/13 01:14:30;;;;;;;13.00;3.60;;;;;;;9.86;71.57;101642.31;5091256;28;20038;-78
2022/05/13 01:20:00;;;;;;;14.07;3.55;;;;;;;9.88;70.94;101636.84;5090779;28;20054;-78
2022/05/13 01:22:25;;;;;;;13.70;3.85;;;;;;;9.88;70.78;101640.41;5097287;28;20032;-78
2022/05/13 01:24:51;;;;;;;10.35;3.15;;;;;;;9.90;70.84;101633.13;5073461;28;20020;-78
2022/05/13 01:27:16;;;;;;;15.55;4.10;;;;;;;9.88;70.46;101631.47;5095143;28;20035;-78
2022/05/13 01:29:41;;;;;;;12.43;3.20;;;;;;;9.87;70.57;101633.31;5089683;28;20493;-78
2022/05/13 01:32:07;;;;;;;9.85;3.17;;;;;;;9.84;70.45;101637.97;5090675;28;20053;-78
2022/05/13 01:34:32;;;;;;;8.48;2.78;;;;;;;9.84;70.28;101638.84;5084060;28;20023;-78
2022/05/13 01:36:57;;;;;;;11.15;3.05;;;;;;;9.83;70.29;101642.50;5110492;28;20061;-78
2022/05/13 01:39:23;;;;;;;13.43;3.35;;;;;;;9.83;70.21;101638.94;5093093;28;20475;-78
2022/05/13 01:41:48;;;;;;;14.82;3.28;;;;;;;9.86;70.51;101641.44;5105846;28;20028;-78
2022/05/13 01:44:13;;;;;;;10.43;2.67;;;;;;;9.89;70.55;101638.59;5095346;28;20053;-78
2022/05/13 01:46:39;;;;;;;10.00;3.00;;;;;;;9.95;70.26;101651.66;5106793;28;20027;-78
2022/05/13 01:49:04;;;;;;;12.60;3.08;;;;;;;9.98;69.99;101643.41;5101787;27;20024;-78
2022/05/13 01:51:29;;;;;;;9.15;2.92;;;;;;;9.99;70.33;101650.53;5091108;28;20471;-78
2022/05/13 01:53:55;;;;;;;10.98;2.75;;;;;;;10.03;69.82;101643.13;5084368;28;20073;-78
2022/05/13 01:56:20;;;;;;;15.63;3.22;;;;;;;10.04;70.57;101643.06;5091590;28;20016;-78
2022/05/13 01:58:45;;;;;;;11.15;3.15;;;;;;;10.08;69.71;101654.50;5107717;28;20039;-78
2022/05/13 02:01:11;;;;;;;11.25;3.03;;;;;;;10.07;69.37;101645.59;5076147;27;20047;-78
2022/05/13 02:03:45;;;;;;;15.68;3.13;;;;;;;10.08;69.23;101644.59;5079078;28;20093;-78
2022/05/13 02:06:28;;;;;;;12.02;3.03;;;;;;;10.10;69.32;101652.56;5105275;28;20023;-78
2022/05/13 02:08:56;;;;;;;14.63;3.28;;;;;;;10.08;69.79;101641.91;5085880;28;20024;-78
2022/05/13 02:11:24;;;;;;;13.85;3.15;;;;;;;10.07;69.49;101642.00;5099303;28;20424;-78
2022/05/13 02:13:50;;;;;;;10.00;2.83;;;;;;;10.07;69.81;101645.59;5078327;28;20024;-78
2022/05/13 02:16:15;;;;;;;15.55;3.28;;;;;;;10.09;69.99;101643.66;5096674;28;20082;-78
2022/05/13 02:18:41;;;;;;;13.85;3.20;;;;;;;10.07;70.05;101640.22;5103150;28;20039;-78
2022/05/13 02:21:08;;;;;;;13.07;3.25;;;;;;;10.10;70.44;101645.41;5108928;28;20023;-78
2022/05/13 02:23:34;;;;;;;14.05;3.15;;;;;;;10.10;70.24;101641.84;5079507;28;20086;-78
2022/05/13 02:26:10;;;;;;;15.27;2.95;;;;;;;10.09;70.66;101640.13;5104412;28;20115;-78
2022/05/13 02:28:37;;;;;;;12.93;3.75;;;;;;;10.08;70.53;101638.38;5104504;28;20024;-78
2022/05/13 02:31:02;;;;;;;11.95;2.80;;;;;;;10.09;70.75;101643.66;5089983;28;20017;-78
2022/05/13 02:33:29;;;;;;;15.05;3.40;;;;;;;10.08;70.43;101636.56;5080389;28;20148;-78
2022/05/13 02:35:55;;;;;;;14.38;3.38;;;;;;;10.11;70.73;101640.88;5087247;28;20511;-78
2022/05/13 02:38:20;;;;;;;11.50;3.13;;;;;;;10.13;70.27;101636.28;5078341;28;20115;-78
2022/05/13 02:43:31;;;;;;;13.43;3.17;;;;;;;10.16;70.75;101638.78;5099698;28;20520;-78
2022/05/13 02:45:57;;;;;;;12.43;2.72;;;;;;;10.14;71.21;101636.19;5072323;28;20102;-78
2022/05/13 02:48:23;;;;;;;12.43;3.22;;;;;;;10.17;71.41;101634.28;5087758;28;20134;-78
2022/05/13 02:50:48;;;;;;;15.95;3.45;;;;;;;10.18;71.47;101639.56;5101109;28;20035;-78
2022/05/13 02:53:13;;;;;;;14.77;3.65;;;;;;;10.20;71.82;101634.09;5100664;28;20047;-77
2022/05/13 02:55:39;;;;;;;12.68;3.78;;;;;;;10.21;72.09;101630.47;5071894;28;20480;-78
2022/05/13 02:58:07;;;;;;;17.02;3.58;;;;;;;10.21;72.10;101625.94;5104730;28;20805;-78
2022/05/13 03:00:33;;;;;;;13.30;3.75;;;;;;;10.23;71.92;101629.41;5103683;28;20462;-78
2022/05/13 03:02:59;;;;;;;14.88;2.95;;;;;;;10.24;72.40;101631.13;5084455;28;20043;-78
2022/05/13 03:05:25;;;;;;;16.42;3.85;;;;;;;10.25;72.24;101632.88;5076972;28;20188;-78
2022/05/13 03:07:52;;;;;;;22.05;4.00;;;;;;;10.30;72.96;101637.97;5107062;28;20026;-78
2022/05/13 03:10:18;;;;;;;17.48;3.95;;;;;;;10.30;72.83;101636.13;5104491;28;20066;-78
2022/05/13 03:12:43;;;;;;;11.60;3.53;;;;;;;10.33;72.99;101640.47;5091094;28;20031;-78
2022/05/13 03:15:10;;;;;;;13.68;4.25;;;;;;;10.34;72.88;101636.88;5080514;28;20415;-77
2022/05/13 03:17:36;;;;;;;15.40;3.67;;;;;;;10.35;73.51;101632.34;5100350;28;20118;-78
2022/05/13 03:20:03;;;;;;;15.00;3.50;;;;;;;10.35;73.80;101627.84;5100100;27;20717;-78
2022/05/13 03:22:28;;;;;;;13.32;4.30;;;;;;;10.36;73.38;101636.78;5071078;28;20119;-78
2022/05/13 03:24:54;;;;;;;15.27;3.47;;;;;;;10.37;73.55;101636.69;5104233;28;20094;-79
2022/05/13 03:27:19;;;;;;;19.05;4.00;;;;;;;10.39;73.71;101625.84;5105453;28;20433;-78
2022/05/13 03:29:44;;;;;;;11.98;3.60;;;;;;;10.40;73.76;101627.59;5082054;28;20036;-78
2022/05/13 03:32:09;;;;;;;15.43;3.67;;;;;;;10.38;73.52;101619.63;5089973;28;20040;-78
2022/05/13 03:34:38;;;;;;;16.48;4.15;;;;;;;10.40;73.54;101619.53;5076064;28;20039;-78
2022/05/13 03:37:05;;;;;;;16.45;3.80;;;;;;;10.38;73.65;101616.03;5091077;28;20089;-77
2022/05/13 03:39:30;;;;;;;11.50;3.45;;;;;;;10.34;74.18;101619.88;5108996;28;20028;-78
2022/05/13 03:41:56;;;;;;;17.80;4.20;;;;;;;10.32;74.34;101622.63;5074927;28;20077;-78
2022/05/13 03:44:21;;;;;;;15.90;4.93;;;;;;;10.29;74.29;101629.06;5089557;28;20347;-78
2022/05/13 03:46:47;;;;;;;15.18;3.80;;;;;;;10.26;74.45;101629.25;5095485;28;20066;-78
2022/05/13 03:49:13;;;;;;;15.52;4.38;;;;;;;10.26;74.48;101623.00;5095707;28;20024;-78
2022/05/13 03:51:38;;;;;;;19.10;4.38;;;;;;;10.23;74.53;101628.53;5109813;28;20027;-78
2022/05/13 03:54:04;;;;;;;19.48;4.25;;;;;;;10.24;74.82;101622.22;5112668;27;20034;-78
2022/05/13 03:56:29;;;;;;;21.52;4.68;;;;;;;10.24;74.72;101627.59;5082995;28;20031;-78
2022/05/13 03:58:55;;;;;;;19.63;5.32;;;;;;;10.24;74.83;101630.28;5072723;28;20244;-78
2022/05/13 04:01:20;;;;;;;18.63;4.88;;;;;;;10.21;75.23;101625.09;5093722;27;20027;-77
2022/05/13 04:03:47;;;;;;;18.35;4.47;;;;;;;10.17;75.09;101623.53;5116317;27;20028;-77
2022/05/13 04:08:58;;;;;;;16.83;4.38;;;;;;;10.15;75.34;101627.19;5093544;28;20093;-78
2022/05/13 04:11:36;;;;;;;20.63;4.90;;;;;;;10.15;75.31;101624.50;5077315;27;20028;-77
2022/05/13 04:16:46;;;;;;;20.52;4.63;;;;;;;10.12;75.65;101624.69;5110121;28;20055;-78
2022/05/13 04:19:12;;;;;;;18.40;4.53;;;;;;;10.10;76.05;101629.28;5086574;28;20032;-78
2022/05/13 04:21:39;;;;;;;14.85;4.55;;;;;;;10.10;75.74;101623.91;5073747;28;20440;-78
2022/05/13 04:24:08;;;;;;;18.98;5.25;;;;;;;10.08;75.89;101623.13;5104954;28;20073;-77
2022/05/13 04:26:34;;;;;;;22.00;5.80;;;;;;;10.08;75.78;101633.00;5093811;28;20372;-78
2022/05/13 04:29:00;;;;;;;23.17;5.28;;;;;;;10.09;76.06;101632.06;5086842;28;20051;-78
2022/05/13 04:31:38;;;;;;;17.42;4.47;;;;;;;10.07;76.01;101634.84;5101136;28;20023;-78
2022/05/13 04:34:04;;;;;;;16.35;4.57;;;;;;;10.09;75.99;101643.66;5093648;28;20023;-78
2022/05/13 04:36:30;;;;;;;18.05;4.70;;;;;;;10.10;76.23;101639.16;5107753;28;20031;-78
2022/05/13 04:38:55;;;;;;;17.20;4.65;;;;;;;10.10;75.95;101637.34;5109011;28;20027;-78
2022/05/13 04:44:07;;;;;;;16.15;4.32;;;;;;;10.12;76.29;101648.84;5104661;28;20089;-78
2022/05/13 04:46:32;;;;;;;21.13;6.07;;;;;;;10.13;76.67;101658.66;5059449;28;20035;-78
2022/05/13 04:48:59;;;;;;;19.85;5.00;;;;;;;10.17;76.33;101658.47;5091500;28;20024;-78
2022/05/13 04:51:25;;;;;;;20.13;5.10;;;;;;;10.20;76.22;101660.97;5097367;27;20016;-78
2022/05/13 04:53:52;;;;;;;27.02;5.15;;;;;;;10.22;76.80;101656.34;5097130;28;20042;-78
2022/05/13 04:56:19;;;;;;;16.48;4.22;;;;;;;10.27;76.97;101662.34;5110291;28;20043;-77
2022/05/13 04:58:44;;;;;;;13.48;4.28;;;;;;;10.32;76.59;101665.59;5108722;28;20035;-78
2022/05/13 05:01:11;;;;;;;22.58;5.25;;;;;;;10.35;76.45;101657.38;5103071;27;20362;-78
2022/05/13 05:03:37;;;;;;;16.92;4.57;;;;;;;10.41;76.55;101669.59;5120162;27;20053;-78
2022/05/13 05:06:04;;;;;;;26.55;5.60;;;;;;;10.44;75.89;101673.00;5076536;28;20020;-78
2022/05/13 05:08:30;;;;;;;20.13;4.68;;;;;;;10.48;76.13;101671.84;5103963;28;20031;-78
2022/05/13 05:10:57;;;;;;;19.17;5.25;;;;;;;10.51;76.45;101678.00;5082292;28;20124;-78
2022/05/13 05:13:25;;;;;;;16.92;4.60;;;;;;;10.53;76.23;101684.13;5102800;28;20023;-78
2022/05/13 05:15:50;;;;;;;25.63;5.82;;;;;;;10.57;76.72;101674.94;5102984;28;20051;-78
2022/05/13 05:18:16;;;;;;;19.88;4.97;;;;;;;10.61;76.16;101682.72;5107246;27;20114;-78
2022/05/13 05:20:43;;;;;;;20.88;5.32;;;;;;;10.61;76.35;101676.47;5096758;28;20026;-78
2022/05/13 05:23:17;;;;;;;17.50;4.55;;;;;;;10.65;76.03;101694.16;5081967;28;20039;-78
2022/05/13 05:25:44;;;;;;;18.33;5.15;;;;;;;10.66;75.88;101687.84;5094906;28;20032;-77
2022/05/13 05:28:09;;;;;;;19.58;4.63;;;;;;;10.71;76.04;101695.63;5105127;28;20483;-78
2022/05/13 05:30:35;;;;;;;19.92;5.10;;;;;;;10.75;76.21;101700.72;5078491;28;20039;-78
2022/05/13 05:33:00;;;;;;;20.50;4.80;;;;;;;10.80;76.09;101705.81;5083376;28;20023;-77
2022/05/13 05:35:26;;;;;;;17.15;4.78;;;;;;;10.83;75.83;101708.31;5096738;28;20471;-78
2022/05/13 05:37:51;;;;;;;17.25;5.10;;;;;;;10.86;75.96;101712.66;5098600;28;20467;-78
2022/05/13 05:40:17;;;;;;;20.45;5.22;;;;;;;10.91;75.38;101716.78;5086853;28;20028;-78
2022/05/13 05:42:43;;;;;;;21.65;5.57;;;;;;;10.95;75.42;101712.97;5091765;28;20543;-78
2022/05/13 05:45:12;;;;;;;21.70;5.15;;;;;;;10.98;75.80;101715.47;5076586;28;20031;-78
2022/05/13 05:47:37;;;;;;;20.57;5.77;;;;;;;11.02;75.37;101721.50;5112013;27;20019;-78
2022/05/13 05:50:07;;;;;;;24.27;5.25;;;;;;;11.06;75.77;101723.03;5100859;27;20289;-78
2022/05/13 05:52:32;;;;;;;16.58;5.63;;;;;;;11.10;75.73;101738.03;5074662;28;20832;-77
2022/05/13 05:57:57;;;;;;;23.58;5.97;;;;;;;11.22;75.28;101732.88;5099284;28;20046;-78
2022/05/13 06:00:22;;;;;;;23.23;5.75;;;;;;;11.25;75.70;101738.91;5098989;27;20035;-77
2022/05/13 06:02:47;;;;;;;20.58;5.38;;;;;;;11.27;75.00;101741.50;5085195;28;20052;-78
2022/05/13 06:05:13;;;;;;;25.08;6.05;;;;;;;11.32;75.51;101739.41;5093237;28;20340;-78
2022/05/13 06:07:38;;;;;;;21.45;6.03;;;;;;;11.36;75.36;101738.25;5091084;28;20096;-78
2022/05/13 06:10:03;;;;;;;17.77;5.32;;;;;;;11.44;75.59;101737.78;5088447;28;20040;-78
2022/05/13 06:12:29;;;;;;;19.38;5.80;;;;;;;11.50;75.51;101740.94;5072951;28;20032;-78
2022/05/13 06:14:54;;;;;;;19.23;5.25;;;;;;;11.58;75.87;101744.97;5072463;28;20059;-78
2022/05/13 06:17:19;;;;;;;19.58;5.63;;;;;;;11.65;75.61;101746.31;5092374;28;20065;-78
2022/05/13 06:19:44;;;;;;;23.10;6.43;;;;;;;11.74;75.04;101740.34;5095017;28;20429;-78
2022/05/13 06:22:10;;;;;;;18.63;5.55;;;;;;;11.80;75.25;101753.44;5097770;28;20430;-78
2022/05/13 06:24:35;;;;;;;21.20;6.07;;;;;;;11.87;75.90;101737.72;5091417;28;20084;-78
2022/05/13 06:27:00;;;;;;;20.45;6.30;;;;;;;11.95;74.98;101748.03;5090958;28;20115;-78
2022/05/13 06:29:26;;;;;;;21.00;5.95;;;;;;;11.99;74.74;101742.38;5072807;28;20031;-78
2022/05/13 06:31:53;;;;;;;25.45;6.15;;;;;;;12.04;75.12;101751.00;5091282;28;20020;-78
2022/05/13 06:34:19;;;;;;;23.20;6.22;;;;;;;12.07;74.49;101753.50;5083978;28;20039;-78
2022/05/13 06:36:44;;;;;;;19.42;5.78;;;;;;;12.12;74.96;101755.88;5096680;28;20031;-78
2022/05/13 06:39:10;;;;;;;23.63;6.93;;;;;;;12.16;74.88;101761.94;5102702;28;20479;-78
2022/05/13 06:41:40;;;;;;;19.15;6.05;;;;;;;12.24;74.92;101765.03;5086962;28;20431;-78
2022/05/13 06:44:06;;;;;;;19.20;6.18;;;;;;;12.29;74.63;101754.78;5104434;28;20102;-78
2022/05/13 06:46:33;;;;;;;21.80;6.75;;;;;;;12.35;74.96;101769.69;5106596;28;20516;-78
2022/05/13 06:48:59;;;;;;;23.58;6.43;;;;;;;12.41;74.49;101769.28;5120708;27;20019;-77
2022/05/13 06:51:24;;;;;;;24.52;6.65;;;;;;;12.47;74.16;101768.84;5125254;28;20389;-78
2022/05/13 06:53:50;;;;;;;24.63;7.18;;;;;;;12.57;74.38;101769.13;5089964;28;20414;-78
2022/05/13 06:56:15;;;;;;;21.67;6.95;;;;;;;12.63;74.22;101775.94;5106232;28;20518;-78
2022/05/13 06:58:40;;;;;;;25.33;7.07;;;;;;;12.68;73.69;101771.09;5109006;28;20532;-78
2022/05/13 07:01:06;;;;;;;27.67;8.48;;;;;;;12.73;73.48;101779.75;5102276;28;20035;-78
2022/05/13 07:03:31;;;;;;;25.20;7.20;;;;;;;12.74;73.45;101785.03;5100979;28;20020;-78
2022/05/13 07:05:56;;;;;;;23.42;7.65;;;;;;;12.77;73.31;101768.63;5097930;28;20050;-77
2022/05/13 07:08:22;;;;;;;25.40;7.57;;;;;;;12.81;73.06;101777.41;5108803;28;20369;-78
2022/05/13 07:10:47;;;;;;;20.02;6.70;;;;;;;12.87;74.36;101771.59;5090519;28;20367;-78
2022/05/13 07:13:14;;;;;;;21.50;7.45;;;;;;;12.92;72.79;101776.66;5108875;28;20031;-78
2022/05/13 07:15:40;;;;;;;26.00;7.35;;;;;;;12.97;73.28;101781.72;5112239;28;20069;-78
2022/05/13 07:18:06;;;;;;;20.45;7.55;;;;;;;13.01;72.77;101775.16;5109622;27;20125;-78
2022/05/13 07:20:32;;;;;;;22.02;7.80;;;;;;;13.09;73.68;101775.50;5110026;28;20099;-78
2022/05/13 07:22:58;;;;;;;21.13;7.70;;;;;;;13.16;73.46;101776.78;5094031;28;20122;-78
2022/05/13 07:25:24;;;;;;;22.77;7.72;;;;;;;13.21;72.29;101773.78;5112655;28;20043;-79
2022/05/13 07:27:49;;;;;;;26.00;8.23;;;;;;;13.32;73.95;101778.44;5093536;28;20020;-78
2022/05/13 07:30:16;;;;;;;24.58;7.88;;;;;;;13.34;71.82;101777.38;5110441;28;20071;-78
2022/05/13 07:32:41;;;;;;;23.80;7.78;;;;;;;13.40;71.14;101778.78;5104350;28;20036;-78
2022/05/13 07:35:08;;;;;;;23.05;8.20;;;;;;;13.45;70.55;101782.88;5103930;28;20503;-77
2022/05/13 07:37:34;;;;;;;24.92;8.27;;;;;;;13.51;70.58;101784.28;5085794;28;20157;-78
2022/05/13 07:42:43;;;;;;;25.77;9.70;;;;;;;13.61;68.72;101785.34;5108190;27;20077;-78
2022/05/13 07:45:09;;;;;;;25.10;8.68;;;;;;;13.66;70.10;101787.75;5106593;28;20019;-78
2022/05/13 07:47:35;;;;;;;23.10;7.35;;;;;;;13.71;69.99;101790.13;5106188;27;20040;-78
2022/05/13 07:50:01;;;;;;;22.58;8.73;;;;;;;13.76;68.42;101787.94;5119922;27;20463;-78
2022/05/13 07:52:26;;;;;;;20.30;8.02;;;;;;;13.84;68.08;101793.66;5118093;27;20023;-78
2022/05/13 07:54:52;;;;;;;24.65;8.98;;;;;;;13.91;68.70;101803.06;5091660;28;20092;-78
2022/05/13 07:57:18;;;;;;;19.83;7.30;;;;;;;13.95;68.48;101796.47;5114888;27;20027;-78
2022/05/13 08:02:27;;;;;;;25.55;8.57;;;;;;;14.12;67.83;101799.75;5107374;28;20378;-77
2022/05/13 08:04:52;;;;;;;21.08;7.30;;;;;;;14.13;67.71;101801.50;5087069;28;20106;-78
2022/05/13 08:07:18;;;;;;;19.50;7.85;;;;;;;14.17;67.71;101805.69;5104717;28;20031;-78
2022/05/13 08:09:43;;;;;;;24.98;8.10;;;;;;;14.22;67.46;101806.22;5090851;28;20035;-78
2022/05/13 08:12:09;;;;;;;20.15;7.13;;;;;;;14.27;66.83;101812.13;5086649;28;20019;-78
2022/05/13 08:14:34;;;;;;;20.88;7.75;;;;;;;14.31;66.51;101816.34;5104377;28;20470;-79
2022/05/13 08:16:59;;;;;;;24.30;7.45;;;;;;;14.32;66.80;101799.16;5090624;28;20043;-78
2022/05/13 08:19:25;;;;;;;17.00;6.75;;;;;;;14.36;66.07;101815.16;5113934;27;20033;-79
2022/05/13 08:21:50;;;;;;;18.58;6.65;;;;;;;14.37;65.45;101819.59;5090847;28;20085;-78
2022/05/13 08:24:15;;;;;;;20.02;5.45;;;;;;;14.36;64.20;101807.88;5110483;28;20131;-78
2022/05/13 08:26:41;;;;;;;19.27;6.93;;;;;;;14.37;64.93;101823.16;5088819;28;20031;-78
2022/05/13 08:29:06;;;;;;;19.75;6.50;;;;;;;14.40;65.31;101816.66;5110844;28;20035;-78
2022/05/13 08:31:31;;;;;;;21.15;6.80;;;;;;;14.51;66.20;101819.44;5091514;28;20034;-78
2022/05/13 08:33:56;;;;;;;19.55;6.95;;;;;;;14.58;65.72;101826.09;5094800;28;20096;-78
2022/05/13 08:36:22;;;;;;;20.42;6.13;;;;;;;14.63;63.77;101823.09;5072514;28;20023;-78
2022/05/13 08:38:49;;;;;;;22.58;6.50;;;;;;;14.73;63.35;101813.31;5091266;28;20077;-78
2022/05/13 08:41:39;;;;;;;21.25;6.18;;;;;;;14.81;64.07;101818.13;5075875;28;20043;-79
2022/05/13 08:44:07;;;;;;;19.10;5.65;;;;;;;14.83;62.57;101818.88;5070694;28;20067;-78
2022/05/13 08:46:40;;;;;;;22.17;5.63;;;;;;;14.93;62.59;101817.19;5077472;28;20494;-78
2022/05/13 08:49:24;;;;;;;21.00;5.60;;;;;;;14.96;62.81;101824.22;5112079;27;20032;-78
2022/05/13 08:53:06;;;;;;;17.25;5.93;;;;;;;14.92;61.98;101828.13;5080268;28;20036;-78
2022/05/13 08:54:56;;;;;;;18.15;5.45;;;;;;;14.85;60.89;101830.44;5099360;28;20126;-78
2022/05/13 08:57:27;;;;;;;15.35;4.93;;;;;;;14.84;61.76;101831.44;5101441;28;20024;-78
2022/05/13 08:59:58;;;;;;;18.33;5.90;;;;;;;14.88;62.15;101827.50;5112863;28;20027;-79
2022/05/13 09:02:49;;;;;;;21.75;6.28;;;;;;;14.98;62.99;101823.13;5094964;27;20051;-78
2022/05/13 09:05:44;;;;;;;17.67;5.78;;;;;;;15.12;62.18;101829.31;5100284;28;20027;-78
2022/05/13 09:08:09;;;;;;;15.85;5.70;;;;;;;15.12;59.88;101832.03;5112773;28;20467;-78
2022/05/13 09:10:55;;;;;;;16.67;5.70;;;;;;;15.08;61.12;101819.69;5073884;28;20024;-78
2022/05/13 09:13:51;;;;;;;14.80;4.95;;;;;;;15.12;61.48;101830.16;5074053;28;20023;-78
2022/05/13 09:16:49;;;;;;;14.93;4.68;;;;;;;15.10;59.11;101825.88;5087904;28;20462;-78
2022/05/13 09:19:34;;;;;;;18.98;5.18;;;;;;;15.13;59.04;101833.75;5102175;27;20039;-78
2022/05/13 09:22:06;;;;;;;14.15;4.63;;;;;;;15.15;58.97;101829.97;5123887;27;20053;-79
2022/05/13 09:24:31;;;;;;;20.17;5.43;;;;;;;15.21;58.69;101831.31;5112307;28;20482;-78
2022/05/13 09:26:57;;;;;;;16.70;4.78;;;;;;;15.27;59.60;101828.13;5076935;28;20023;-78
2022/05/13 09:29:22;;;;;;;17.52;4.43;;;;;;;15.32;58.17;101833.19;5097262;28;20094;-78
2022/05/13 09:32:02;;;;;;;16.42;4.80;;;;;;;15.41;60.02;101837.03;5075515;28;20036;-78
2022/05/13 09:34:49;;;;;;;14.23;4.53;;;;;;;15.40;58.35;101843.44;5102698;28;20016;-78
2022/05/13 09:37:21;;;;;;;16.63;4.30;;;;;;;15.28;56.74;101840.69;5109009;28;20123;-78
2022/05/13 09:39:48;;;;;;;13.88;4.05;;;;;;;15.31;56.74;101837.72;5092394;28;20270;-78
2022/05/13 09:42:34;;;;;;;13.90;4.60;;;;;;;15.42;58.17;101841.44;5111620;28;20418;-78
2022/05/13 09:45:23;;;;;;;17.73;4.95;;;;;;;15.59;59.79;101845.56;5093604;28;20084;-78
2022/05/13 09:48:12;;;;;;;13.18;5.05;;;;;;;15.65;57.18;101845.06;5104232;27;20041;-78
2022/05/13 09:50:41;;;;;;;12.07;4.20;;;;;;;15.62;55.25;101842.59;5114157;27;20367;-78
2022/05/13 09:53:26;;;;;;;16.23;4.27;;;;;;;15.60;55.31;101852.72;5113855;27;20432;-78
2022/05/13 09:55:54;;;;;;;17.23;4.13;;;;;;;15.52;55.98;101846.03;5097191;27;20295;-78
2022/05/13 09:58:23;;;;;;;16.42;4.28;;;;;;;15.54;56.34;101849.47;5131560;27;20472;-78
2022/05/13 10:00:53;;;;;;;13.93;4.45;;;;;;;15.55;56.80;101853.06;5113073;27;20164;-78
2022/05/13 10:03:35;;;;;;;14.70;4.18;;;;;;;15.55;54.53;101851.22;5112864;27;20418;-79
2022/05/13 10:06:23;;;;;;;11.50;3.35;;;;;;;15.51;55.20;101849.72;5131171;27;20102;-79
2022/05/13 10:13:57;;;;;;;13.27;3.63;;;;;;;15.49;53.99;101854.41;5132174;27;20022;-78
2022/05/13 10:14:38;;;;;;;14.85;4.30;;;;;;;15.47;54.71;101858.22;5132145;27;20065;-78
2022/05/13 10:17:17;;;;;;;13.95;4.32;;;;;;;15.47;54.92;101848.22;5109938;28;20202;-78
2022/05/13 10:19:58;;;;;;;12.10;4.25;;;;;;;15.46;55.90;101857.38;5111487;28;20027;-79
2022/05/13 10:22:38;;;;;;;13.32;4.28;;;;;;;15.45;55.39;101857.50;5109956;28;20118;-78
2022/05/13 10:25:09;;;;;;;14.25;3.72;;;;;;;15.48;56.16;101855.38;5111727;28;20024;-78
2022/05/13 10:27:39;;;;;;;19.77;4.65;;;;;;;15.63;57.77;101853.31;5109844;28;20023;-78
2022/05/13 10:30:17;;;;;;;17.02;4.40;;;;;;;15.84;56.62;101849.91;5110037;28;20019;-78
2022/05/13 10:32:50;;;;;;;11.50;4.35;;;;;;;15.93;55.27;101851.91;5111222;28;20062;-78
2022/05/13 10:35:20;;;;;;;13.50;4.75;;;;;;;15.96;55.39;101857.09;5109653;28;20114;-78
2022/05/13 10:37:59;;;;;;;17.08;5.20;;;;;;;15.93;54.42;101851.91;5089343;28;20127;-78
2022/05/13 10:40:29;;;;;;;14.93;3.85;;;;;;;15.95;54.21;101852.63;5091066;28;20117;-78
2022/05/13 10:43:01;;;;;;;17.30;4.68;;;;;;;16.01;54.64;101838.59;5089233;28;20028;-78
2022/05/13 10:45:30;;;;;;;16.70;4.80;;;;;;;16.08;54.07;101842.53;5084182;28;20472;-78
2022/05/13 10:48:11;;;;;;;14.80;4.45;;;;;;;16.08;54.21;101855.22;5082180;28;20051;-78
2022/05/13 10:50:52;;;;;;;16.05;4.55;;;;;;;16.04;55.08;101849.19;5087511;28;20382;-78
2022/05/13 10:53:50;;;;;;;13.95;4.13;;;;;;;16.01;53.82;101848.56;5093669;28;20028;-79
2022/05/13 10:56:34;;;;;;;17.27;5.00;;;;;;;16.07;54.46;101848.94;5093010;28;20044;-79
2022/05/13 10:59:37;;;;;;;15.50;5.15;;;;;;;16.26;54.89;101852.88;5075587;28;20384;-79
2022/05/13 11:02:11;;;;;;;13.93;3.65;;;;;;;16.41;53.75;101859.75;5074454;28;20453;-79
2022/05/13 11:04:59;;;;;;;19.48;4.50;;;;;;;16.45;53.05;101851.38;5087351;28;20072;-79
2022/05/13 11:07:40;;;;;;;12.50;4.20;;;;;;;16.49;53.23;101840.13;5075704;28;20020;-79
2022/05/13 11:10:39;;;;;;;16.08;4.53;;;;;;;16.67;55.36;101840.44;5078225;28;20028;-78
2022/05/13 11:13:32;;;;;;;13.85;3.95;;;;;;;16.81;52.83;101850.16;5077317;28;20127;-80
2022/05/13 11:16:01;;;;;;;10.43;3.25;;;;;;;16.83;49.19;101850.03;5084258;28;20048;-79
2022/05/13 11:18:43;;;;;;;11.50;3.90;;;;;;;16.78;49.76;101853.13;5073164;28;20039;-79
2022/05/13 11:21:30;;;;;;;13.43;4.03;;;;;;;16.68;51.50;101844.88;5074083;28;20016;-78
2022/05/13 11:27:13;;;;;;;15.70;4.65;;;;;;;16.48;52.36;101856.53;5070518;28;20121;-78
2022/05/13 11:29:58;;;;;;;18.83;4.90;;;;;;;16.43;52.55;101855.06;5054348;28;20075;-78
2022/05/13 11:32:39;;;;;;;12.70;3.72;;;;;;;16.45;52.33;101854.09;5069504;28;20043;-79
2022/05/13 11:35:27;;;;;;;15.00;3.67;;;;;;;16.56;53.09;101854.91;5067648;28;20478;-78
2022/05/13 11:37:59;;;;;;;18.40;4.43;;;;;;;16.65;51.74;101857.84;5066686;28;20403;-78
2022/05/13 11:40:41;;;;;;;13.70;4.78;;;;;;;16.82;53.03;101853.72;5071730;28;20128;-79
2022/05/13 11:43:20;;;;;;;12.40;3.72;;;;;;;17.01;53.46;101844.91;5070315;28;20079;-79
2022/05/13 11:46:00;;;;;;;14.40;4.32;;;;;;;17.11;51.57;101845.84;5059856;28;20029;-79
2022/05/13 11:48:35;;;;;;;17.15;4.43;;;;;;;17.19;49.62;101856.06;5067564;28;20394;-79
2022/05/13 11:51:14;;;;;;;15.48;4.90;;;;;;;17.25;50.82;101850.13;5071486;28;20024;-79
2022/05/13 11:53:42;;;;;;;14.45;5.15;;;;;;;17.27;49.87;101853.56;5070136;28;20029;-78
2022/05/13 11:56:18;;;;;;;14.93;5.18;;;;;;;17.23;49.08;101846.66;5071478;28;20040;-79
2022/05/13 11:58:48;;;;;;;15.65;4.63;;;;;;;17.19;49.68;101851.50;5070426;28;20451;-79